sensor_id;sensor_type;location;lat;lon;timestamp;pressure;altitude;pressure_sealevel;temperature;humidity
31538;BME280;18147;51.952;6.146;2023-03-04T00:00:31;102524.06;;;6.00;100.00
31538;BME280;18147;51.952;6.146;2023-03-04T00:02:56;102523.97;;;6.05;100.00
31538;BME280;18147;51.952;6.146;2023-03-04T00:05:22;102526.72;;;5.99;100.00
31538;BME280;18147;51.952;6.146;2023-03-04T00:07:47;102534.72;;;5.95;100.00
31538;BME280;18147;51.952;6.146;2023-03-04T00:10:13;102526.88;;;5.88;100.00
31538;BME280;18147;51.952;6.146;2023-03-04T00:12:38;102527.75;;;5.88;100.00
31538;BME280;18147;51.952;6.146;2023-03-04T00:15:04;102526.78;;;5.95;100.00
31538;BME280;18147;51.952;6.146;2023-03-04T00:17:31;102522.34;;;5.96;100.00
31538;BME280;18147;51.952;6.146;2023-03-04T00:19:57;102525.00;;;5.97;100.00
31538;BME280;18147;51.952;6.146;2023-03-04T00:22:22;102529.59;;;5.83;100.00
31538;BME280;18147;51.952;6.146;2023-03-04T00:24:48;102520.69;;;5.89;100.00
31538;BME280;18147;51.952;6.146;2023-03-04T00:27:13;102515.38;;;5.89;100.00
31538;BME280;18147;51.952;6.146;2023-03-04T00:29:39;102519.63;;;6.01;100.00
31538;BME280;18147;51.952;6.146;2023-03-04T00:32:05;102514.38;;;5.99;100.00
31538;BME280;18147;51.952;6.146;2023-03-04T00:34:30;102523.09;;;6.04;100.00
31538;BME280;18147;51.952;6.146;2023-03-04T00:36:56;102522.13;;;6.10;100.00
31538;BME280;18147;51.952;6.146;2023-03-04T00:39:26;102522.38;;;5.94;100.00
31538;BME280;18147;51.952;6.146;2023-03-04T00:41:53;102526.81;;;5.91;100.00
31538;BME280;18147;51.952;6.146;2023-03-04T00:44:18;102515.28;;;5.98;100.00
31538;BME280;18147;51.952;6.146;2023-03-04T00:46:44;102519.72;;;5.94;100.00
31538;BME280;18147;51.952;6.146;2023-03-04T00:49:10;102519.19;;;5.72;100.00
31538;BME280;18147;51.952;6.146;2023-03-04T00:51:35;102508.31;;;5.92;100.00
31538;BME280;18147;51.952;6.146;2023-03-04T00:54:02;102513.63;;;5.89;100.00
31538;BME280;18147;51.952;6.146;2023-03-04T00:56:28;102518.25;;;5.75;100.00
31538;BME280;18147;51.952;6.146;2023-03-04T00:58:53;102504.75;;;5.92;100.00
31538;BME280;18147;51.952;6.146;2023-03-04T01:01:19;102511.00;;;5.86;100.00
31538;BME280;18147;51.952;6.146;2023-03-04T01:03:45;102514.56;;;5.85;100.00
31538;BME280;18147;51.952;6.146;2023-03-04T01:06:10;102512.34;;;6.13;100.00
31538;BME280;18147;51.952;6.146;2023-03-04T01:08:37;102512.56;;;6.01;100.00
31538;BME280;18147;51.952;6.146;2023-03-04T01:11:03;102515.13;;;6.06;100.00
31538;BME280;18147;51.952;6.146;2023-03-04T01:13:28;102519.50;;;6.07;100.00
31538;BME280;18147;51.952;6.146;2023-03-04T01:15:54;102524.91;;;6.01;100.00
31538;BME280;18147;51.952;6.146;2023-03-04T01:18:20;102513.56;;;5.94;100.00
31538;BME280;18147;51.952;6.146;2023-03-04T01:20:46;102515.22;;;6.00;100.00
31538;BME280;18147;51.952;6.146;2023-03-04T01:23:11;102511.78;;;5.94;100.00
31538;BME280;18147;51.952;6.146;2023-03-04T01:25:37;102506.84;;;5.73;100.00
31538;BME280;18147;51.952;6.146;2023-03-04T01:28:02;102506.66;;;5.84;100.00
31538;BME280;18147;51.952;6.146;2023-03-04T01:30:28;102502.03;;;5.98;100.00
31538;BME280;18147;51.952;6.146;2023-03-04T01:32:54;102504.75;;;5.92;100.00
31538;BME280;18147;51.952;6.146;2023-03-04T01:35:20;102499.75;;;5.74;100.00
31538;BME280;18147;51.952;6.146;2023-03-04T01:37:45;102497.69;;;5.91;100.00
31538;BME280;18147;51.952;6.146;2023-03-04T01:40:12;102490.66;;;5.90;100.00
31538;BME280;18147;51.952;6.146;2023-03-04T01:42:37;102492.66;;;5.76;100.00
31538;BME280;18147;51.952;6.146;2023-03-04T01:45:05;102493.50;;;5.79;100.00
31538;BME280;18147;51.952;6.146;2023-03-04T01:47:32;102489.09;;;5.78;100.00
31538;BME280;18147;51.952;6.146;2023-03-04T01:50:01;102492.31;;;5.97;100.00
31538;BME280;18147;51.952;6.146;2023-03-04T01:52:27;102487.19;;;5.86;100.00
31538;BME280;18147;51.952;6.146;2023-03-04T01:54:53;102490.72;;;5.85;100.00
31538;BME280;18147;51.952;6.146;2023-03-04T01:57:22;102492.66;;;5.76;100.00
31538;BME280;18147;51.952;6.146;2023-03-04T02:00:19;102488.38;;;5.67;100.00
31538;BME280;18147;51.952;6.146;2023-03-04T02:02:46;102481.25;;;5.72;100.00
31538;BME280;18147;51.952;6.146;2023-03-04T02:05:12;102484.78;;;5.72;100.00
31538;BME280;18147;51.952;6.146;2023-03-04T02:07:39;102477.75;;;5.70;100.00
31538;BME280;18147;51.952;6.146;2023-03-04T02:10:05;102478.78;;;5.63;100.00
31538;BME280;18147;51.952;6.146;2023-03-04T02:12:30;102470.63;;;5.75;100.00
31538;BME280;18147;51.952;6.146;2023-03-04T02:14:57;102471.59;;;5.69;100.00
31538;BME280;18147;51.952;6.146;2023-03-04T02:17:26;102469.06;;;5.62;100.00
31538;BME280;18147;51.952;6.146;2023-03-04T02:22:37;102466.34;;;5.66;100.00
31538;BME280;18147;51.952;6.146;2023-03-04T02:25:15;102466.50;;;5.59;100.00
31538;BME280;18147;51.952;6.146;2023-03-04T02:27:43;102464.41;;;5.76;100.00
31538;BME280;18147;51.952;6.146;2023-03-04T02:30:10;102458.44;;;5.65;100.00
31538;BME280;18147;51.952;6.146;2023-03-04T02:32:36;102454.03;;;5.65;100.00
31538;BME280;18147;51.952;6.146;2023-03-04T02:35:01;102457.66;;;5.60;100.00
31538;BME280;18147;51.952;6.146;2023-03-04T02:37:27;102450.47;;;5.68;100.00
31538;BME280;18147;51.952;6.146;2023-03-04T02:39:53;102453.91;;;5.73;100.00
31538;BME280;18147;51.952;6.146;2023-03-04T02:42:18;102451.19;;;5.78;100.00
31538;BME280;18147;51.952;6.146;2023-03-04T02:44:46;102450.34;;;5.74;100.00
31538;BME280;18147;51.952;6.146;2023-03-04T02:47:16;102450.06;;;5.89;100.00
31538;BME280;18147;51.952;6.146;2023-03-04T02:49:43;102448.25;;;5.94;100.00
31538;BME280;18147;51.952;6.146;2023-03-04T02:52:12;102451.06;;;5.82;100.00
31538;BME280;18147;51.952;6.146;2023-03-04T02:54:39;102444.63;;;6.00;100.00
31538;BME280;18147;51.952;6.146;2023-03-04T02:57:07;102443.94;;;5.87;100.00
31538;BME280;18147;51.952;6.146;2023-03-04T02:59:36;102446.03;;;5.68;100.00
31538;BME280;18147;51.952;6.146;2023-03-04T03:02:03;102437.97;;;5.75;100.00
31538;BME280;18147;51.952;6.146;2023-03-04T03:04:29;102436.16;;;5.77;100.00
31538;BME280;18147;51.952;6.146;2023-03-04T03:06:55;102435.56;;;5.61;100.00
31538;BME280;18147;51.952;6.146;2023-03-04T03:09:21;102435.38;;;5.71;100.00
31538;BME280;18147;51.952;6.146;2023-03-04T03:11:47;102423.81;;;5.79;100.00
31538;BME280;18147;51.952;6.146;2023-03-04T03:14:13;102418.03;;;5.55;100.00
31538;BME280;18147;51.952;6.146;2023-03-04T03:16:38;102427.38;;;5.76;100.00
31538;BME280;18147;51.952;6.146;2023-03-04T03:19:04;102414.81;;;5.87;100.00
31538;BME280;18147;51.952;6.146;2023-03-04T03:21:30;102421.16;;;5.79;100.00
31538;BME280;18147;51.952;6.146;2023-03-04T03:23:55;102419.22;;;5.87;100.00
31538;BME280;18147;51.952;6.146;2023-03-04T03:26:21;102417.72;;;5.74;100.00
31538;BME280;18147;51.952;6.146;2023-03-04T03:28:46;102414.16;;;5.75;100.00
31538;BME280;18147;51.952;6.146;2023-03-04T03:31:12;102409.97;;;5.63;100.00
31538;BME280;18147;51.952;6.146;2023-03-04T03:33:38;102407.22;;;5.69;100.00
31538;BME280;18147;51.952;6.146;2023-03-04T03:36:04;102404.56;;;5.69;100.00
31538;BME280;18147;51.952;6.146;2023-03-04T03:38:31;102406.03;;;5.85;100.00
31538;BME280;18147;51.952;6.146;2023-03-04T03:40:57;102407.75;;;5.86;100.00
31538;BME280;18147;51.952;6.146;2023-03-04T03:43:22;102408.63;;;5.88;100.00
31538;BME280;18147;51.952;6.146;2023-03-04T03:45:48;102405.19;;;5.83;100.00
31538;BME280;18147;51.952;6.146;2023-03-04T03:48:13;102402.75;;;5.71;100.00
31538;BME280;18147;51.952;6.146;2023-03-04T03:50:39;102403.41;;;5.82;100.00
31538;BME280;18147;51.952;6.146;2023-03-04T03:53:04;102405.19;;;5.83;100.00
31538;BME280;18147;51.952;6.146;2023-03-04T03:55:30;102405.03;;;5.91;100.00
31538;BME280;18147;51.952;6.146;2023-03-04T03:57:55;102411.44;;;5.79;100.00
31538;BME280;18147;51.952;6.146;2023-03-04T04:00:21;102410.06;;;5.58;100.00
31538;BME280;18147;51.952;6.146;2023-03-04T04:02:47;102417.84;;;5.67;100.00
31538;BME280;18147;51.952;6.146;2023-03-04T04:05:13;102407.88;;;5.80;100.00
31538;BME280;18147;51.952;6.146;2023-03-04T04:07:38;102408.53;;;5.94;100.00
31538;BME280;18147;51.952;6.146;2023-03-04T04:10:06;102406.59;;;6.04;100.00
31538;BME280;18147;51.952;6.146;2023-03-04T04:12:32;102403.28;;;5.90;100.00
31538;BME280;18147;51.952;6.146;2023-03-04T04:14:57;102406.06;;;5.84;100.00
31538;BME280;18147;51.952;6.146;2023-03-04T04:17:23;102406.19;;;5.78;100.00
31538;BME280;18147;51.952;6.146;2023-03-04T04:19:48;102410.13;;;5.54;100.00
31538;BME280;18147;51.952;6.146;2023-03-04T04:22:15;102407.59;;;5.46;100.00
31538;BME280;18147;51.952;6.146;2023-03-04T04:24:41;102406.34;;;5.68;100.00
31538;BME280;18147;51.952;6.146;2023-03-04T04:27:07;102401.84;;;5.74;100.00
31538;BME280;18147;51.952;6.146;2023-03-04T04:29:33;102408.81;;;5.78;100.00
31538;BME280;18147;51.952;6.146;2023-03-04T04:31:58;102398.16;;;5.81;100.00
31538;BME280;18147;51.952;6.146;2023-03-04T04:34:24;102406.53;;;5.58;100.00
31538;BME280;18147;51.952;6.146;2023-03-04T04:36:50;102405.28;;;5.77;100.00
31538;BME280;18147;51.952;6.146;2023-03-04T04:39:18;102399.91;;;5.82;100.00
31538;BME280;18147;51.952;6.146;2023-03-04T04:41:44;102398.25;;;5.78;100.00
31538;BME280;18147;51.952;6.146;2023-03-04T04:44:10;102405.84;;;5.97;100.00
31538;BME280;18147;51.952;6.146;2023-03-04T04:46:38;102411.19;;;5.94;100.00
31538;BME280;18147;51.952;6.146;2023-03-04T04:49:04;102410.16;;;6.03;100.00
31538;BME280;18147;51.952;6.146;2023-03-04T04:51:30;102407.59;;;5.97;100.00
31538;BME280;18147;51.952;6.146;2023-03-04T04:53:55;102411.34;;;5.84;100.00
31538;BME280;18147;51.952;6.146;2023-03-04T04:56:22;102409.56;;;5.84;100.00
31538;BME280;18147;51.952;6.146;2023-03-04T04:58:55;102408.66;;;5.85;100.00
31538;BME280;18147;51.952;6.146;2023-03-04T05:01:22;102412.25;;;5.83;100.00
31538;BME280;18147;51.952;6.146;2023-03-04T05:03:49;102415.00;;;5.77;100.00
31538;BME280;18147;51.952;6.146;2023-03-04T05:06:15;102414.81;;;5.87;100.00
31538;BME280;18147;51.952;6.146;2023-03-04T05:08:40;102406.88;;;5.87;100.00
31538;BME280;18147;51.952;6.146;2023-03-04T05:11:06;102409.94;;;5.64;100.00
31538;BME280;18147;51.952;6.146;2023-03-04T05:13:32;102408.91;;;5.73;100.00
31538;BME280;18147;51.952;6.146;2023-03-04T05:15:58;102410.50;;;5.82;100.00
31538;BME280;18147;51.952;6.146;2023-03-04T05:18:25;102407.44;;;5.55;100.00
31538;BME280;18147;51.952;6.146;2023-03-04T05:20:56;102414.03;;;5.81;100.00
31538;BME280;18147;51.952;6.146;2023-03-04T05:23:23;102413.88;;;5.93;100.00
31538;BME280;18147;51.952;6.146;2023-03-04T05:25:49;102416.44;;;5.97;100.00
31538;BME280;18147;51.952;6.146;2023-03-04T05:28:14;102412.97;;;5.91;100.00
31538;BME280;18147;51.952;6.146;2023-03-04T05:30:41;102415.53;;;5.97;100.00
31538;BME280;18147;51.952;6.146;2023-03-04T05:33:08;102409.63;;;5.81;100.00
31538;BME280;18147;51.952;6.146;2023-03-04T05:35:34;102407.63;;;5.95;100.00
31538;BME280;18147;51.952;6.146;2023-03-04T05:38:00;102405.88;;;5.94;100.00
31538;BME280;18147;51.952;6.146;2023-03-04T05:40:26;102402.03;;;6.11;100.00
31538;BME280;18147;51.952;6.146;2023-03-04T05:42:52;102410.44;;;5.85;100.00
31538;BME280;18147;51.952;6.146;2023-03-04T05:45:19;102407.84;;;5.83;100.00
31538;BME280;18147;51.952;6.146;2023-03-04T05:47:44;102411.22;;;5.91;100.00
31538;BME280;18147;51.952;6.146;2023-03-04T05:50:10;102413.06;;;5.88;100.00
31538;BME280;18147;51.952;6.146;2023-03-04T05:52:37;102417.38;;;5.93;100.00
31538;BME280;18147;51.952;6.146;2023-03-04T05:55:04;102418.50;;;5.79;100.00
31538;BME280;18147;51.952;6.146;2023-03-04T05:57:30;102415.78;;;5.83;100.00
31538;BME280;18147;51.952;6.146;2023-03-04T05:59:56;102428.94;;;5.86;100.00
31538;BME280;18147;51.952;6.146;2023-03-04T06:02:21;102419.41;;;5.76;100.00
31538;BME280;18147;51.952;6.146;2023-03-04T06:04:47;102424.59;;;5.82;100.00
31538;BME280;18147;51.952;6.146;2023-03-04T06:07:12;102420.16;;;5.84;100.00
31538;BME280;18147;51.952;6.146;2023-03-04T06:09:37;102426.38;;;5.82;100.00
31538;BME280;18147;51.952;6.146;2023-03-04T06:12:03;102422.59;;;5.98;100.00
31538;BME280;18147;51.952;6.146;2023-03-04T06:14:29;102421.94;;;5.82;100.00
31538;BME280;18147;51.952;6.146;2023-03-04T06:16:54;102417.56;;;5.81;100.00
31538;BME280;18147;51.952;6.146;2023-03-04T06:19:20;102419.34;;;5.81;100.00
31538;BME280;18147;51.952;6.146;2023-03-04T06:21:45;102422.56;;;6.00;100.00
31538;BME280;18147;51.952;6.146;2023-03-04T06:24:11;102426.91;;;6.02;100.00
31538;BME280;18147;51.952;6.146;2023-03-04T06:26:36;102432.31;;;5.97;100.00
31538;BME280;18147;51.952;6.146;2023-03-04T06:29:03;102427.84;;;6.00;100.00
31538;BME280;18147;51.952;6.146;2023-03-04T06:31:30;102428.84;;;5.91;100.00
31538;BME280;18147;51.952;6.146;2023-03-04T06:33:56;102430.59;;;5.95;100.00
31538;BME280;18147;51.952;6.146;2023-03-04T06:36:21;102432.31;;;5.97;100.00
31538;BME280;18147;51.952;6.146;2023-03-04T06:38:47;102429.56;;;6.04;100.00
31538;BME280;18147;51.952;6.146;2023-03-04T06:41:12;102426.13;;;5.99;100.00
31538;BME280;18147;51.952;6.146;2023-03-04T06:43:38;102431.53;;;5.92;100.00
31538;BME280;18147;51.952;6.146;2023-03-04T06:46:06;102430.69;;;5.89;100.00
31538;BME280;18147;51.952;6.146;2023-03-04T06:48:33;102430.78;;;5.83;100.00
31538;BME280;18147;51.952;6.146;2023-03-04T06:51:07;102437.75;;;5.88;100.00
31538;BME280;18147;51.952;6.146;2023-03-04T06:53:33;102435.94;;;5.90;100.00
31538;BME280;18147;51.952;6.146;2023-03-04T06:55:59;102435.88;;;5.95;100.00
31538;BME280;18147;51.952;6.146;2023-03-04T06:58:25;102434.97;;;5.97;100.00
31538;BME280;18147;51.952;6.146;2023-03-04T07:00:50;102433.06;;;6.04;100.00
31538;BME280;18147;51.952;6.146;2023-03-04T07:03:16;102428.53;;;6.11;100.00
31538;BME280;18147;51.952;6.146;2023-03-04T07:05:42;102431.31;;;6.03;100.00
31538;BME280;18147;51.952;6.146;2023-03-04T07:08:07;102433.91;;;6.06;100.00
31538;BME280;18147;51.952;6.146;2023-03-04T07:10:33;102450.28;;;6.28;100.00
31538;BME280;18147;51.952;6.146;2023-03-04T07:12:59;102431.56;;;6.36;100.00
31538;BME280;18147;51.952;6.146;2023-03-04T07:15:25;102432.16;;;6.50;100.00
31538;BME280;18147;51.952;6.146;2023-03-04T07:17:51;102434.94;;;6.42;100.00
31538;BME280;18147;51.952;6.146;2023-03-04T07:20:17;102440.69;;;6.22;100.00
31538;BME280;18147;51.952;6.146;2023-03-04T07:22:43;102444.97;;;6.27;100.00
31538;BME280;18147;51.952;6.146;2023-03-04T07:25:08;102441.41;;;6.29;100.00
31538;BME280;18147;51.952;6.146;2023-03-04T07:27:34;102437.03;;;6.28;100.00
31538;BME280;18147;51.952;6.146;2023-03-04T07:30:01;102449.50;;;6.23;100.00
31538;BME280;18147;51.952;6.146;2023-03-04T07:32:26;102433.75;;;6.59;100.00
31538;BME280;18147;51.952;6.146;2023-03-04T07:34:52;102440.06;;;6.92;100.00
31538;BME280;18147;51.952;6.146;2023-03-04T07:37:18;102436.63;;;6.88;100.00
31538;BME280;18147;51.952;6.146;2023-03-04T07:39:43;102441.44;;;7.10;100.00
31538;BME280;18147;51.952;6.146;2023-03-04T07:42:09;102439.50;;;6.78;100.00
31538;BME280;18147;51.952;6.146;2023-03-04T07:44:39;102437.91;;;6.70;100.00
31538;BME280;18147;51.952;6.146;2023-03-04T07:47:04;102438.56;;;6.80;100.00
31538;BME280;18147;51.952;6.146;2023-03-04T07:49:29;102431.25;;;6.91;100.00
31538;BME280;18147;51.952;6.146;2023-03-04T07:51:55;102441.50;;;7.07;100.00
31538;BME280;18147;51.952;6.146;2023-03-04T07:54:20;102438.47;;;7.23;100.00
31538;BME280;18147;51.952;6.146;2023-03-04T07:56:46;102435.28;;;7.09;100.00
31538;BME280;18147;51.952;6.146;2023-03-04T07:59:11;102439.31;;;7.25;100.00
31538;BME280;18147;51.952;6.146;2023-03-04T08:01:37;102441.19;;;7.20;100.00
31538;BME280;18147;51.952;6.146;2023-03-04T08:04:03;102439.03;;;7.36;100.00
31538;BME280;18147;51.952;6.146;2023-03-04T08:06:30;102438.38;;;7.28;100.00
31538;BME280;18147;51.952;6.146;2023-03-04T08:09:04;102437.34;;;7.34;100.00
31538;BME280;18147;51.952;6.146;2023-03-04T08:11:31;102441.09;;;7.61;100.00
31538;BME280;18147;51.952;6.146;2023-03-04T08:13:57;102448.03;;;7.31;100.00
31538;BME280;18147;51.952;6.146;2023-03-04T08:16:24;102446.34;;;7.28;100.00
31538;BME280;18147;51.952;6.146;2023-03-04T08:21:25;102443.09;;;7.51;100.00
31538;BME280;18147;51.952;6.146;2023-03-04T08:23:51;102446.78;;;7.45;100.00
31538;BME280;18147;51.952;6.146;2023-03-04T08:26:22;102448.88;;;7.68;100.00
31538;BME280;18147;51.952;6.146;2023-03-04T08:28:48;102446.47;;;7.58;100.00
31538;BME280;18147;51.952;6.146;2023-03-04T08:31:15;102456.03;;;7.99;100.00
31538;BME280;18147;51.952;6.146;2023-03-04T08:33:41;102456.16;;;7.94;100.00
31538;BME280;18147;51.952;6.146;2023-03-04T08:36:07;102461.78;;;7.82;100.00
31538;BME280;18147;51.952;6.146;2023-03-04T08:38:33;102459.06;;;7.85;100.00
31538;BME280;18147;51.952;6.146;2023-03-04T08:40:59;102456.47;;;7.82;100.00
31538;BME280;18147;51.952;6.146;2023-03-04T08:43:25;102454.41;;;7.59;100.00
31538;BME280;18147;51.952;6.146;2023-03-04T08:45:52;102456.34;;;7.88;100.00
31538;BME280;18147;51.952;6.146;2023-03-04T08:48:18;102457.19;;;7.89;100.00
31538;BME280;18147;51.952;6.146;2023-03-04T08:50:45;102446.97;;;7.73;100.00
31538;BME280;18147;51.952;6.146;2023-03-04T08:53:11;102455.41;;;7.55;100.00
31538;BME280;18147;51.952;6.146;2023-03-04T08:55:38;102461.19;;;7.71;100.00
31538;BME280;18147;51.952;6.146;2023-03-04T08:58:04;102455.06;;;8.01;100.00
31538;BME280;18147;51.952;6.146;2023-03-04T09:00:31;102450.56;;;8.05;100.00
31538;BME280;18147;51.952;6.146;2023-03-04T09:02:57;102452.41;;;8.34;100.00
31538;BME280;18147;51.952;6.146;2023-03-04T09:05:22;102459.59;;;7.98;100.00
31538;BME280;18147;51.952;6.146;2023-03-04T09:07:48;102453.16;;;8.07;100.00
31538;BME280;18147;51.952;6.146;2023-03-04T09:10:13;102457.69;;;8.03;100.00
31538;BME280;18147;51.952;6.146;2023-03-04T09:12:39;102458.47;;;8.07;100.00
31538;BME280;18147;51.952;6.146;2023-03-04T09:15:05;102453.06;;;7.77;100.00
31538;BME280;18147;51.952;6.146;2023-03-04T09:17:31;102454.38;;;7.61;100.00
31538;BME280;18147;51.952;6.146;2023-03-04T09:19:57;102455.81;;;7.72;100.00
31538;BME280;18147;51.952;6.146;2023-03-04T09:22:23;102452.75;;;7.89;100.00
31538;BME280;18147;51.952;6.146;2023-03-04T09:24:48;102451.88;;;7.89;100.00
31538;BME280;18147;51.952;6.146;2023-03-04T09:27:14;102456.63;;;8.10;100.00
31538;BME280;18147;51.952;6.146;2023-03-04T09:29:39;102455.75;;;8.10;100.00
31538;BME280;18147;51.952;6.146;2023-03-04T09:32:05;102446.09;;;8.40;100.00
31538;BME280;18147;51.952;6.146;2023-03-04T09:34:30;102442.41;;;8.75;100.00
31538;BME280;18147;51.952;6.146;2023-03-04T09:36:56;102440.88;;;8.66;100.00
31538;BME280;18147;51.952;6.146;2023-03-04T09:39:21;102429.69;;;8.55;100.00
31538;BME280;18147;51.952;6.146;2023-03-04T09:41:53;102431.63;;;8.50;100.00
31538;BME280;18147;51.952;6.146;2023-03-04T09:44:28;102435.94;;;8.54;100.00
31538;BME280;18147;51.952;6.146;2023-03-04T09:46:58;102429.56;;;8.28;100.00
31538;BME280;18147;51.952;6.146;2023-03-04T09:49:25;102435.50;;;8.05;100.00
31538;BME280;18147;51.952;6.146;2023-03-04T09:54:42;102423.91;;;8.41;100.00
31538;BME280;18147;51.952;6.146;2023-03-04T09:59:50;102420.38;;;8.99;100.00
31538;BME280;18147;51.952;6.146;2023-03-04T10:02:43;102423.03;;;8.99;100.00
31538;BME280;18147;51.952;6.146;2023-03-04T10:05:13;102416.19;;;8.91;100.00
31538;BME280;18147;51.952;6.146;2023-03-04T10:07:42;102413.78;;;8.53;100.00
31538;BME280;18147;51.952;6.146;2023-03-04T10:10:24;102420.78;;;8.56;100.00
31538;BME280;18147;51.952;6.146;2023-03-04T10:12:52;102419.66;;;8.65;100.00
31538;BME280;18147;51.952;6.146;2023-03-04T10:17:56;102415.50;;;9.40;100.00
31538;BME280;18147;51.952;6.146;2023-03-04T10:20:34;102410.81;;;9.20;100.00
31538;BME280;18147;51.952;6.146;2023-03-04T10:23:10;102415.19;;;9.49;100.00
31538;BME280;18147;51.952;6.146;2023-03-04T10:25:43;102406.28;;;9.50;100.00
31538;BME280;18147;51.952;6.146;2023-03-04T10:28:20;102395.56;;;9.52;100.00
31538;BME280;18147;51.952;6.146;2023-03-04T10:33:50;102405.88;;;9.08;100.00
31538;BME280;18147;51.952;6.146;2023-03-04T10:38:41;102406.78;;;8.51;100.00
31538;BME280;18147;51.952;6.146;2023-03-04T10:41:16;102402.00;;;8.62;100.00
31538;BME280;18147;51.952;6.146;2023-03-04T10:43:42;102406.50;;;8.29;100.00
31538;BME280;18147;51.952;6.146;2023-03-04T10:46:11;102408.88;;;8.40;100.00
31538;BME280;18147;51.952;6.146;2023-03-04T10:48:40;102409.63;;;8.43;100.00
31538;BME280;18147;51.952;6.146;2023-03-04T10:53:39;102412.47;;;8.37;100.00
31538;BME280;18147;51.952;6.146;2023-03-04T10:56:38;102410.66;;;8.39;100.00
31538;BME280;18147;51.952;6.146;2023-03-04T11:04:35;102397.59;;;9.19;100.00
31538;BME280;18147;51.952;6.146;2023-03-04T11:07:00;102399.16;;;8.96;100.00
31538;BME280;18147;51.952;6.146;2023-03-04T11:09:28;102399.03;;;9.01;100.00
31538;BME280;18147;51.952;6.146;2023-03-04T11:11:58;102388.94;;;8.82;100.00
31538;BME280;18147;51.952;6.146;2023-03-04T11:14:26;102394.56;;;8.73;100.00
31538;BME280;18147;51.952;6.146;2023-03-04T11:16:59;102385.06;;;9.47;100.00
31538;BME280;18147;51.952;6.146;2023-03-04T11:19:33;102381.09;;;10.34;100.00
31538;BME280;18147;51.952;6.146;2023-03-04T11:22:00;102387.91;;;9.93;100.00
31538;BME280;18147;51.952;6.146;2023-03-04T11:24:27;102382.88;;;9.85;100.00
31538;BME280;18147;51.952;6.146;2023-03-04T11:27:01;102381.25;;;9.81;100.00
31538;BME280;18147;51.952;6.146;2023-03-04T11:29:42;102378.69;;;9.78;100.00
31538;BME280;18147;51.952;6.146;2023-03-04T11:32:13;102378.69;;;9.26;100.00
31538;BME280;18147;51.952;6.146;2023-03-04T11:34:49;102384.00;;;9.00;100.00
31538;BME280;18147;51.952;6.146;2023-03-04T11:37:21;102387.94;;;8.59;100.00
31538;BME280;18147;51.952;6.146;2023-03-04T11:39:55;102383.56;;;8.56;100.00
31538;BME280;18147;51.952;6.146;2023-03-04T11:42:25;102384.44;;;8.25;100.00
31538;BME280;18147;51.952;6.146;2023-03-04T11:44:54;102388.56;;;8.37;100.00
31538;BME280;18147;51.952;6.146;2023-03-04T11:50:06;102379.84;;;9.18;100.00
31538;BME280;18147;51.952;6.146;2023-03-04T11:55:59;102364.53;;;9.51;100.00
31538;BME280;18147;51.952;6.146;2023-03-04T12:01:08;102348.94;;;9.90;100.00
31538;BME280;18147;51.952;6.146;2023-03-04T12:18:35;102352.91;;;8.13;100.00
31538;BME280;18147;51.952;6.146;2023-03-04T12:26:29;102346.56;;;8.19;100.00
31538;BME280;18147;51.952;6.146;2023-03-04T12:31:42;102337.91;;;8.71;100.00
31538;BME280;18147;51.952;6.146;2023-03-04T12:37:07;102333.66;;;8.92;100.00
31538;BME280;18147;51.952;6.146;2023-03-04T12:45:38;102324.78;;;8.36;100.00
31538;BME280;18147;51.952;6.146;2023-03-04T12:48:06;102336.38;;;8.03;100.00
31538;BME280;18147;51.952;6.146;2023-03-04T12:50:46;102339.78;;;7.76;100.00
31538;BME280;18147;51.952;6.146;2023-03-04T12:53:33;102337.72;;;7.55;100.00
31538;BME280;18147;51.952;6.146;2023-03-04T12:56:04;102332.81;;;7.39;100.00
31538;BME280;18147;51.952;6.146;2023-03-04T12:58:31;102331.50;;;7.56;100.00
31538;BME280;18147;51.952;6.146;2023-03-04T13:09:03;102309.66;;;7.77;100.00
31538;BME280;18147;51.952;6.146;2023-03-04T13:16:41;102303.50;;;8.37;100.00
31538;BME280;18147;51.952;6.146;2023-03-04T13:28:17;102279.28;;;9.01;100.00
31538;BME280;18147;51.952;6.146;2023-03-04T13:38:20;102281.09;;;9.00;100.00
31538;BME280;18147;51.952;6.146;2023-03-04T13:41:21;102278.72;;;8.37;100.00
31538;BME280;18147;51.952;6.146;2023-03-04T13:43:57;102279.78;;;8.59;100.00
31538;BME280;18147;51.952;6.146;2023-03-04T13:59:27;102277.97;;;8.02;100.00
31538;BME280;18147;51.952;6.146;2023-03-04T14:01:58;102281.16;;;8.13;100.00
31538;BME280;18147;51.952;6.146;2023-03-04T14:04:32;102277.66;;;7.83;100.00
31538;BME280;18147;51.952;6.146;2023-03-04T14:06:59;102272.31;;;8.14;100.00
31538;BME280;18147;51.952;6.146;2023-03-04T14:09:33;102269.13;;;8.01;100.00
31538;BME280;18147;51.952;6.146;2023-03-04T14:12:04;102275.28;;;8.31;100.00
31538;BME280;18147;51.952;6.146;2023-03-04T14:14:46;102280.88;;;8.53;100.00
31538;BME280;18147;51.952;6.146;2023-03-04T14:17:18;102273.31;;;8.40;100.00
31538;BME280;18147;51.952;6.146;2023-03-04T14:19:46;102264.88;;;8.81;99.98
31538;BME280;18147;51.952;6.146;2023-03-04T14:25:00;102250.44;;;9.15;96.43
31538;BME280;18147;51.952;6.146;2023-03-04T14:27:27;102248.31;;;9.73;95.85
31538;BME280;18147;51.952;6.146;2023-03-04T14:29:58;102255.84;;;9.12;90.19
31538;BME280;18147;51.952;6.146;2023-03-04T14:32:24;102252.69;;;9.01;90.58
31538;BME280;18147;51.952;6.146;2023-03-04T14:34:57;102249.22;;;8.99;90.22
31538;BME280;18147;51.952;6.146;2023-03-04T14:37:36;102249.13;;;8.47;93.83
31538;BME280;18147;51.952;6.146;2023-03-04T14:40:03;102247.91;;;8.57;94.64
31538;BME280;18147;51.952;6.146;2023-03-04T14:42:40;102244.69;;;8.48;92.19
31538;BME280;18147;51.952;6.146;2023-03-04T14:45:11;102237.31;;;8.84;93.14